Terminal Aerodrome Forecast
Issued by NWS Spokane, WA

Home | Current Version | Previous Version | Text Only | Print | Product List | Glossary On
Versions: 1 2 3 4 5 6 7 8 9 10 11 12 13 14 15 16 17 18 19 20 21 22 23 24
000
FTUS46 KOTX 162330
TAFGEG
TAF
KGEG 162330Z 1700/1724 04006KT P6SM FEW090 BKN120 BKN200
     FM170300 VRB04KT P6SM SCT150 BKN200
     FM171200 12005KT P6SM SCT120 OVC150
     FM172000 21005KT P6SM SCT080 BKN120 BKN150=

USA.gov is the U.S. government's official web portal to all federal, state and local government web resources and services.